• Join FlightAware (Why Join?)
  • Login
  • US Flag 
11:15PM EDT


 

Airport Tracker/Info


-or-


 

Live Flight TrackerFlight Track Log ✈ FLG3492 ✈ 23-Jun-2013 ✈ KDCA - KJFK

Flight Track Log - Related Links

Times and Time Zones

All times are in EDT time to prevent confusion due to time zone crossing. See the FLG3492 flight status page for this flight to view local times or setup timezone preferences in your user account.

Time Position Orientation Groundspeed Altitude Reporting Facility
EDT Latitude Longitude Course Direction KTS MPH feet Rate Location/Type
06:37AM 38.8667 -77.0333 74° East 156 180 900  Level Potomac TRACON
06:39AM 38.9697 -77.1614 316° Northwest 231 266 6,000 2,580 Climbing Washington Center
06:40AM 38.9408 -76.6612 67° East  Level FlightAware Approximate
06:40AM 39.0350 -77.1281 22° Northeast 214 246 9,200  Level Washington Center
06:41AM 38.9711 -76.5658 72° East  Level FlightAware Approximate
06:41AM 39.0403 -77.0242 86° East 183 211 11,300  Level Washington Center
06:42AM 38.9944 -76.4671 74° East  Level FlightAware Approximate
06:42AM 39.0397 -76.8983 90° East 267 307 13,600  Level Washington Center
06:43AM 39.0411 -76.7675 89° East 311 358 15,900 1,620 Climbing Washington Center
06:44AM 39.0403 -76.6311 90° East 353 406 16,900 540 Climbing Washington Center
06:45AM 39.0414 -76.4842 89° East 382 440 17,000  Climbing Washington Center
06:46AM 39.0403 -76.3344 91° East 409 471 17,000  Level Washington Center
06:47AM 39.0389 -76.1875 91° East 414 476 17,000 -60 Level Washington Center
06:48AM 39.0439 -76.0567 87° East 414 476 16,900 -60 Descending Washington Center
06:49AM 39.0608 -75.9125 81° East 409 471 16,900  Level Washington Center
06:50AM 39.1050 -75.7733 68° East 403 464 16,900  Level Washington Center
06:51AM 39.1447 -75.6369 69° East 403 464 16,900  Level Washington Center
06:52AM 39.1883 -75.4978 68° East 409 471 16,900  Level Washington Center
06:53AM 39.2278 -75.3611 70° East 409 471 16,900  Level Washington Center
06:54AM 39.2711 -75.2217 68° East 409 471 16,900  Level Washington Center
06:55AM 39.3144 -75.0658 70° East 414 476 17,000  Climbing Washington Center
06:57AM 39.3967 -74.7900 69° East 405 466 17,000  Level New York Center
06:58AM 39.4369 -74.6469 70° East 405 466 17,000  Level New York Center
06:59AM 39.4892 -74.5153 63° Northeast 405 466 17,000  Level New York Center
07:00AM 39.5578 -74.3897 55° Northeast 419 482 17,100  Climbing New York Center
07:01AM 39.6322 -74.2750 50° Northeast 419 482 17,100 -420 Level New York Center
07:02AM 39.7139 -74.1900 39° Northeast 412 474 16,300 -1,140 Descending New York Center
07:03AM 39.8019 -74.0969 39° Northeast 405 466 14,900 -1,680 Descending New York Center
07:04AM 39.8903 -74.0011 40° Northeast 380 437 13,000 -1,740 Descending New York Center
07:05AM 39.9631 -73.9261 38° Northeast 342 394 11,400 -1,080 Descending New York Center
07:06AM 40.0383 -73.9186 North 286 329 10,900 -240 Descending New York Center
07:07AM 40.1122 -73.8839 20° North 284 327 11,000 -120 Climbing New York Center
07:08AM 40.1667 -73.7833 55° Northeast 310 357 10,700 -960 Descending New York TRACON
07:09AM 40.2167 -73.7167 46° Northeast 308 354 9,200 -1,500 Descending New York TRACON
07:10AM 40.2833 -73.6667 30° Northeast 299 344 7,700 -1,560 Descending New York TRACON
07:11AM 40.3667 -73.6167 25° Northeast 286 329 6,100 -1,380 Descending New York TRACON
07:12AM 40.4333 -73.5667 30° Northeast 284 327 5,000 -1,020 Descending New York TRACON
07:13AM 40.5000 -73.5167 30° Northeast 290 334 4,100 -540 Descending New York TRACON
07:14AM 40.5667 -73.4667 30° Northeast 283 326 4,000 -60 Descending New York TRACON
07:15AM 40.6500 -73.4667 360° North 269 310 4,000 -240 Level New York TRACON
07:16AM 40.7000 -73.5167 323° Northwest 228 262 3,600 -540 Descending New York TRACON
07:17AM 40.7333 -73.5667 311° West 212 244 3,000 -600 Descending New York TRACON